sensor_id;sensor_type;location;lat;lon;timestamp;P1;durP1;ratioP1;P2;durP2;ratioP2
7729;SDS011;3908;52.310;7.230;2022-08-21T00:00:20;7.93;;;3.30;;
7729;SDS011;3908;52.310;7.230;2022-08-21T00:03:10;3.43;;;3.13;;
7729;SDS011;3908;52.310;7.230;2022-08-21T00:05:59;4.93;;;3.10;;
7729;SDS011;3908;52.310;7.230;2022-08-21T00:08:46;8.43;;;3.13;;
7729;SDS011;3908;52.310;7.230;2022-08-21T00:11:33;6.53;;;2.77;;
7729;SDS011;3908;52.310;7.230;2022-08-21T00:14:22;4.47;;;2.80;;
7729;SDS011;3908;52.310;7.230;2022-08-21T00:17:12;13.23;;;3.30;;
7729;SDS011;3908;52.310;7.230;2022-08-21T00:19:59;4.43;;;3.03;;
7729;SDS011;3908;52.310;7.230;2022-08-21T00:22:48;5.60;;;3.07;;
7729;SDS011;3908;52.310;7.230;2022-08-21T00:25:37;6.17;;;3.53;;
7729;SDS011;3908;52.310;7.230;2022-08-21T00:28:24;5.80;;;3.37;;
7729;SDS011;3908;52.310;7.230;2022-08-21T00:31:11;5.67;;;3.83;;
7729;SDS011;3908;52.310;7.230;2022-08-21T00:33:59;6.70;;;3.27;;
7729;SDS011;3908;52.310;7.230;2022-08-21T00:36:48;4.17;;;3.43;;
7729;SDS011;3908;52.310;7.230;2022-08-21T00:39:37;7.47;;;3.47;;
7729;SDS011;3908;52.310;7.230;2022-08-21T00:42:24;8.17;;;3.60;;
7729;SDS011;3908;52.310;7.230;2022-08-21T00:45:12;5.63;;;3.63;;
7729;SDS011;3908;52.310;7.230;2022-08-21T00:48:00;4.27;;;3.13;;
7729;SDS011;3908;52.310;7.230;2022-08-21T00:50:49;7.50;;;3.80;;
7729;SDS011;3908;52.310;7.230;2022-08-21T00:53:39;11.77;;;3.80;;
7729;SDS011;3908;52.310;7.230;2022-08-21T00:56:31;7.13;;;3.80;;
7729;SDS011;3908;52.310;7.230;2022-08-21T00:59:19;12.53;;;3.87;;
7729;SDS011;3908;52.310;7.230;2022-08-21T01:02:07;9.47;;;4.03;;
7729;SDS011;3908;52.310;7.230;2022-08-21T01:04:55;5.07;;;3.43;;
7729;SDS011;3908;52.310;7.230;2022-08-21T01:07:43;7.40;;;3.23;;
7729;SDS011;3908;52.310;7.230;2022-08-21T01:10:30;5.33;;;3.10;;
7729;SDS011;3908;52.310;7.230;2022-08-21T01:13:20;5.93;;;3.67;;
7729;SDS011;3908;52.310;7.230;2022-08-21T01:16:10;4.80;;;2.97;;
7729;SDS011;3908;52.310;7.230;2022-08-21T01:18:57;5.27;;;3.40;;
7729;SDS011;3908;52.310;7.230;2022-08-21T01:21:45;7.27;;;3.27;;
7729;SDS011;3908;52.310;7.230;2022-08-21T01:24:33;4.83;;;3.37;;
7729;SDS011;3908;52.310;7.230;2022-08-21T01:27:20;5.07;;;3.00;;
7729;SDS011;3908;52.310;7.230;2022-08-21T01:30:09;5.60;;;3.40;;
7729;SDS011;3908;52.310;7.230;2022-08-21T01:32:58;5.60;;;3.43;;
7729;SDS011;3908;52.310;7.230;2022-08-21T01:35:45;5.03;;;3.60;;
7729;SDS011;3908;52.310;7.230;2022-08-21T01:38:34;8.10;;;3.97;;
7729;SDS011;3908;52.310;7.230;2022-08-21T01:41:21;5.77;;;4.00;;
7729;SDS011;3908;52.310;7.230;2022-08-21T01:44:08;6.90;;;3.60;;
7729;SDS011;3908;52.310;7.230;2022-08-21T01:46:57;6.30;;;3.73;;
7729;SDS011;3908;52.310;7.230;2022-08-21T01:49:48;8.03;;;3.70;;
7729;SDS011;3908;52.310;7.230;2022-08-21T01:52:38;6.80;;;3.63;;
7729;SDS011;3908;52.310;7.230;2022-08-21T01:55:26;13.13;;;5.90;;
7729;SDS011;3908;52.310;7.230;2022-08-21T01:58:13;8.37;;;4.83;;
7729;SDS011;3908;52.310;7.230;2022-08-21T02:01:00;7.40;;;4.93;;
7729;SDS011;3908;52.310;7.230;2022-08-21T02:03:48;11.50;;;5.20;;
7729;SDS011;3908;52.310;7.230;2022-08-21T02:06:36;10.17;;;5.30;;
7729;SDS011;3908;52.310;7.230;2022-08-21T02:09:24;10.50;;;6.27;;
7729;SDS011;3908;52.310;7.230;2022-08-21T02:12:12;9.17;;;5.20;;
7729;SDS011;3908;52.310;7.230;2022-08-21T02:14:59;8.40;;;6.20;;
7729;SDS011;3908;52.310;7.230;2022-08-21T02:17:47;11.53;;;6.07;;
7729;SDS011;3908;52.310;7.230;2022-08-21T02:20:37;8.30;;;5.87;;
7729;SDS011;3908;52.310;7.230;2022-08-21T02:23:27;9.17;;;5.83;;
7729;SDS011;3908;52.310;7.230;2022-08-21T02:26:14;10.43;;;6.50;;
7729;SDS011;3908;52.310;7.230;2022-08-21T02:29:02;12.57;;;6.83;;
7729;SDS011;3908;52.310;7.230;2022-08-21T02:31:53;11.67;;;6.80;;
7729;SDS011;3908;52.310;7.230;2022-08-21T02:34:40;10.93;;;6.20;;
7729;SDS011;3908;52.310;7.230;2022-08-21T02:37:27;9.73;;;6.20;;
7729;SDS011;3908;52.310;7.230;2022-08-21T02:40:14;13.20;;;6.70;;
7729;SDS011;3908;52.310;7.230;2022-08-21T02:43:04;13.90;;;7.23;;
7729;SDS011;3908;52.310;7.230;2022-08-21T02:45:55;19.00;;;7.77;;
7729;SDS011;3908;52.310;7.230;2022-08-21T02:48:43;12.03;;;7.20;;
7729;SDS011;3908;52.310;7.230;2022-08-21T02:51:31;14.83;;;7.07;;
7729;SDS011;3908;52.310;7.230;2022-08-21T02:54:19;10.83;;;6.87;;
7729;SDS011;3908;52.310;7.230;2022-08-21T02:57:06;12.57;;;7.47;;
7729;SDS011;3908;52.310;7.230;2022-08-21T02:59:53;10.73;;;6.83;;
7729;SDS011;3908;52.310;7.230;2022-08-21T03:02:41;11.53;;;7.00;;
7729;SDS011;3908;52.310;7.230;2022-08-21T03:05:31;9.77;;;7.33;;
7729;SDS011;3908;52.310;7.230;2022-08-21T03:08:20;9.40;;;6.43;;
7729;SDS011;3908;52.310;7.230;2022-08-21T03:11:08;10.50;;;6.60;;
7729;SDS011;3908;52.310;7.230;2022-08-21T03:13:55;11.23;;;6.53;;
7729;SDS011;3908;52.310;7.230;2022-08-21T03:16:42;12.83;;;7.23;;
7729;SDS011;3908;52.310;7.230;2022-08-21T03:19:30;11.10;;;7.07;;
7729;SDS011;3908;52.310;7.230;2022-08-21T03:22:17;10.67;;;6.43;;
7729;SDS011;3908;52.310;7.230;2022-08-21T03:25:05;10.10;;;7.10;;
7729;SDS011;3908;52.310;7.230;2022-08-21T03:27:53;8.77;;;6.33;;
7729;SDS011;3908;52.310;7.230;2022-08-21T03:30:40;11.67;;;7.10;;
7729;SDS011;3908;52.310;7.230;2022-08-21T03:33:28;10.60;;;6.83;;
7729;SDS011;3908;52.310;7.230;2022-08-21T03:36:21;12.17;;;6.93;;
7729;SDS011;3908;52.310;7.230;2022-08-21T03:39:08;12.50;;;6.90;;
7729;SDS011;3908;52.310;7.230;2022-08-21T03:41:56;9.83;;;7.03;;
7729;SDS011;3908;52.310;7.230;2022-08-21T03:44:43;7.03;;;6.33;;
7729;SDS011;3908;52.310;7.230;2022-08-21T03:47:31;11.87;;;7.00;;
7729;SDS011;3908;52.310;7.230;2022-08-21T03:50:18;8.10;;;6.07;;
7729;SDS011;3908;52.310;7.230;2022-08-21T03:53:07;10.23;;;7.00;;
7729;SDS011;3908;52.310;7.230;2022-08-21T03:55:55;8.67;;;6.93;;
7729;SDS011;3908;52.310;7.230;2022-08-21T03:58:43;10.97;;;6.10;;
7729;SDS011;3908;52.310;7.230;2022-08-21T04:01:31;12.30;;;7.10;;
7729;SDS011;3908;52.310;7.230;2022-08-21T04:04:18;12.83;;;6.73;;
7729;SDS011;3908;52.310;7.230;2022-08-21T04:07:05;12.27;;;7.33;;
7729;SDS011;3908;52.310;7.230;2022-08-21T04:09:53;10.47;;;7.03;;
7729;SDS011;3908;52.310;7.230;2022-08-21T04:12:41;13.07;;;6.80;;
7729;SDS011;3908;52.310;7.230;2022-08-21T04:15:28;9.30;;;7.70;;
7729;SDS011;3908;52.310;7.230;2022-08-21T04:18:15;17.20;;;8.10;;
7729;SDS011;3908;52.310;7.230;2022-08-21T04:21:03;12.33;;;7.50;;
7729;SDS011;3908;52.310;7.230;2022-08-21T04:23:53;14.60;;;7.70;;
7729;SDS011;3908;52.310;7.230;2022-08-21T04:26:41;13.40;;;7.80;;
7729;SDS011;3908;52.310;7.230;2022-08-21T04:29:29;8.87;;;6.83;;
7729;SDS011;3908;52.310;7.230;2022-08-21T04:32:21;8.87;;;6.97;;
7729;SDS011;3908;52.310;7.230;2022-08-21T04:35:09;12.53;;;8.37;;
7729;SDS011;3908;52.310;7.230;2022-08-21T04:37:57;9.47;;;7.50;;
7729;SDS011;3908;52.310;7.230;2022-08-21T04:40:44;14.87;;;8.27;;
7729;SDS011;3908;52.310;7.230;2022-08-21T04:43:33;12.17;;;8.13;;
7729;SDS011;3908;52.310;7.230;2022-08-21T04:46:20;11.10;;;8.37;;
7729;SDS011;3908;52.310;7.230;2022-08-21T04:49:07;12.13;;;8.03;;
7729;SDS011;3908;52.310;7.230;2022-08-21T04:51:55;13.00;;;8.03;;
7729;SDS011;3908;52.310;7.230;2022-08-21T04:54:42;11.13;;;7.93;;
7729;SDS011;3908;52.310;7.230;2022-08-21T04:57:31;11.70;;;8.50;;
7729;SDS011;3908;52.310;7.230;2022-08-21T05:00:20;9.57;;;8.33;;
7729;SDS011;3908;52.310;7.230;2022-08-21T05:03:09;11.60;;;8.87;;
7729;SDS011;3908;52.310;7.230;2022-08-21T05:06:00;10.70;;;7.93;;
7729;SDS011;3908;52.310;7.230;2022-08-21T05:08:50;12.47;;;8.00;;
7729;SDS011;3908;52.310;7.230;2022-08-21T05:11:41;12.93;;;7.60;;
7729;SDS011;3908;52.310;7.230;2022-08-21T05:14:29;12.93;;;8.70;;
7729;SDS011;3908;52.310;7.230;2022-08-21T05:17:19;15.13;;;8.77;;
7729;SDS011;3908;52.310;7.230;2022-08-21T05:20:07;12.33;;;7.90;;
7729;SDS011;3908;52.310;7.230;2022-08-21T05:22:54;9.47;;;7.30;;
7729;SDS011;3908;52.310;7.230;2022-08-21T05:25:42;10.13;;;7.20;;
7729;SDS011;3908;52.310;7.230;2022-08-21T05:28:29;10.20;;;7.90;;
7729;SDS011;3908;52.310;7.230;2022-08-21T05:31:16;10.53;;;8.03;;
7729;SDS011;3908;52.310;7.230;2022-08-21T05:34:05;11.73;;;7.87;;
7729;SDS011;3908;52.310;7.230;2022-08-21T05:36:52;12.77;;;7.97;;
7729;SDS011;3908;52.310;7.230;2022-08-21T05:39:39;10.63;;;7.97;;
7729;SDS011;3908;52.310;7.230;2022-08-21T05:42:27;12.17;;;7.50;;
7729;SDS011;3908;52.310;7.230;2022-08-21T05:45:14;13.63;;;8.03;;
7729;SDS011;3908;52.310;7.230;2022-08-21T05:48:05;12.20;;;8.47;;
7729;SDS011;3908;52.310;7.230;2022-08-21T05:50:54;13.40;;;8.83;;
7729;SDS011;3908;52.310;7.230;2022-08-21T05:53:42;10.00;;;7.20;;
7729;SDS011;3908;52.310;7.230;2022-08-21T05:56:31;11.23;;;7.47;;
7729;SDS011;3908;52.310;7.230;2022-08-21T05:59:18;11.67;;;6.67;;
7729;SDS011;3908;52.310;7.230;2022-08-21T06:02:05;12.43;;;7.50;;
7729;SDS011;3908;52.310;7.230;2022-08-21T06:04:53;9.67;;;7.70;;
7729;SDS011;3908;52.310;7.230;2022-08-21T06:07:44;10.27;;;6.80;;
7729;SDS011;3908;52.310;7.230;2022-08-21T06:10:31;13.20;;;6.70;;
7729;SDS011;3908;52.310;7.230;2022-08-21T06:13:19;12.20;;;7.63;;
7729;SDS011;3908;52.310;7.230;2022-08-21T06:16:08;8.63;;;6.20;;
7729;SDS011;3908;52.310;7.230;2022-08-21T06:18:59;7.67;;;5.50;;
7729;SDS011;3908;52.310;7.230;2022-08-21T06:21:46;9.37;;;6.33;;
7729;SDS011;3908;52.310;7.230;2022-08-21T06:24:34;9.18;;;5.68;;
7729;SDS011;3908;52.310;7.230;2022-08-21T06:27:22;10.37;;;6.33;;
7729;SDS011;3908;52.310;7.230;2022-08-21T06:30:09;13.50;;;6.45;;
7729;SDS011;3908;52.310;7.230;2022-08-21T06:32:57;7.80;;;5.03;;
7729;SDS011;3908;52.310;7.230;2022-08-21T06:35:47;9.00;;;5.97;;
7729;SDS011;3908;52.310;7.230;2022-08-21T06:38:34;7.97;;;4.82;;
7729;SDS011;3908;52.310;7.230;2022-08-21T06:41:23;8.80;;;5.53;;
7729;SDS011;3908;52.310;7.230;2022-08-21T06:44:11;13.55;;;5.35;;
7729;SDS011;3908;52.310;7.230;2022-08-21T06:46:58;7.13;;;4.63;;
7729;SDS011;3908;52.310;7.230;2022-08-21T06:49:45;10.02;;;4.78;;
7729;SDS011;3908;52.310;7.230;2022-08-21T06:52:32;8.30;;;5.38;;
7729;SDS011;3908;52.310;7.230;2022-08-21T06:55:19;6.45;;;4.63;;
7729;SDS011;3908;52.310;7.230;2022-08-21T06:58:08;5.75;;;4.22;;
7729;SDS011;3908;52.310;7.230;2022-08-21T07:00:57;7.25;;;4.38;;
7729;SDS011;3908;52.310;7.230;2022-08-21T07:03:44;8.75;;;4.15;;
7729;SDS011;3908;52.310;7.230;2022-08-21T07:06:31;7.68;;;4.15;;
7729;SDS011;3908;52.310;7.230;2022-08-21T07:09:18;6.05;;;4.10;;
7729;SDS011;3908;52.310;7.230;2022-08-21T07:12:05;7.57;;;3.95;;
7729;SDS011;3908;52.310;7.230;2022-08-21T07:14:55;8.10;;;3.15;;
7729;SDS011;3908;52.310;7.230;2022-08-21T07:17:43;6.18;;;3.60;;
7729;SDS011;3908;52.310;7.230;2022-08-21T07:20:30;4.72;;;3.00;;
7729;SDS011;3908;52.310;7.230;2022-08-21T07:23:18;7.00;;;3.17;;
7729;SDS011;3908;52.310;7.230;2022-08-21T07:26:09;4.75;;;2.83;;
7729;SDS011;3908;52.310;7.230;2022-08-21T07:28:56;7.35;;;3.03;;
7729;SDS011;3908;52.310;7.230;2022-08-21T07:31:45;11.13;;;2.88;;
7729;SDS011;3908;52.310;7.230;2022-08-21T07:34:32;8.38;;;2.42;;
7729;SDS011;3908;52.310;7.230;2022-08-21T07:37:19;6.53;;;2.75;;
7729;SDS011;3908;52.310;7.230;2022-08-21T07:40:06;6.45;;;2.92;;
7729;SDS011;3908;52.310;7.230;2022-08-21T07:42:55;8.80;;;2.38;;
7729;SDS011;3908;52.310;7.230;2022-08-21T07:45:42;8.35;;;2.45;;
7729;SDS011;3908;52.310;7.230;2022-08-21T07:48:31;7.53;;;2.72;;
7729;SDS011;3908;52.310;7.230;2022-08-21T07:51:19;7.00;;;2.30;;
7729;SDS011;3908;52.310;7.230;2022-08-21T07:54:09;10.93;;;2.60;;
7729;SDS011;3908;52.310;7.230;2022-08-21T07:56:56;7.40;;;2.40;;
7729;SDS011;3908;52.310;7.230;2022-08-21T07:59:43;3.70;;;2.03;;
7729;SDS011;3908;52.310;7.230;2022-08-21T08:02:30;8.75;;;2.38;;
7729;SDS011;3908;52.310;7.230;2022-08-21T08:05:19;8.68;;;2.33;;
7729;SDS011;3908;52.310;7.230;2022-08-21T08:08:09;5.15;;;2.42;;
7729;SDS011;3908;52.310;7.230;2022-08-21T08:10:56;7.30;;;2.88;;
7729;SDS011;3908;52.310;7.230;2022-08-21T08:13:46;6.60;;;2.95;;
7729;SDS011;3908;52.310;7.230;2022-08-21T08:16:35;9.88;;;3.95;;
7729;SDS011;3908;52.310;7.230;2022-08-21T08:19:22;10.85;;;3.50;;
7729;SDS011;3908;52.310;7.230;2022-08-21T08:22:15;11.32;;;3.75;;
7729;SDS011;3908;52.310;7.230;2022-08-21T08:25:05;8.20;;;3.35;;
7729;SDS011;3908;52.310;7.230;2022-08-21T08:27:54;9.38;;;3.72;;
7729;SDS011;3908;52.310;7.230;2022-08-21T08:30:43;9.85;;;4.18;;
7729;SDS011;3908;52.310;7.230;2022-08-21T08:33:31;9.85;;;4.35;;
7729;SDS011;3908;52.310;7.230;2022-08-21T08:36:18;8.30;;;3.50;;
7729;SDS011;3908;52.310;7.230;2022-08-21T08:39:07;10.00;;;3.95;;
7729;SDS011;3908;52.310;7.230;2022-08-21T08:41:54;12.13;;;4.93;;
7729;SDS011;3908;52.310;7.230;2022-08-21T08:44:47;9.15;;;4.30;;
7729;SDS011;3908;52.310;7.230;2022-08-21T08:47:37;7.40;;;4.40;;
7729;SDS011;3908;52.310;7.230;2022-08-21T08:50:28;8.90;;;4.15;;
7729;SDS011;3908;52.310;7.230;2022-08-21T08:53:27;8.38;;;4.38;;
7729;SDS011;3908;52.310;7.230;2022-08-21T08:56:21;7.63;;;3.80;;
7729;SDS011;3908;52.310;7.230;2022-08-21T08:59:13;9.23;;;3.13;;
7729;SDS011;3908;52.310;7.230;2022-08-21T09:02:04;7.57;;;3.05;;
7729;SDS011;3908;52.310;7.230;2022-08-21T09:04:51;6.93;;;3.00;;
7729;SDS011;3908;52.310;7.230;2022-08-21T09:07:43;7.38;;;3.20;;
7729;SDS011;3908;52.310;7.230;2022-08-21T09:10:38;6.32;;;2.75;;
7729;SDS011;3908;52.310;7.230;2022-08-21T09:13:41;5.80;;;2.58;;
7729;SDS011;3908;52.310;7.230;2022-08-21T09:16:39;7.15;;;2.72;;
7729;SDS011;3908;52.310;7.230;2022-08-21T09:19:36;7.57;;;2.80;;
7729;SDS011;3908;52.310;7.230;2022-08-21T09:22:34;11.50;;;2.58;;
7729;SDS011;3908;52.310;7.230;2022-08-21T09:25:31;5.28;;;2.22;;
7729;SDS011;3908;52.310;7.230;2022-08-21T09:28:24;8.20;;;2.63;;
7729;SDS011;3908;52.310;7.230;2022-08-21T09:31:15;9.68;;;2.92;;
7729;SDS011;3908;52.310;7.230;2022-08-21T09:34:10;5.43;;;2.00;;
7729;SDS011;3908;52.310;7.230;2022-08-21T09:36:59;7.88;;;2.10;;
7729;SDS011;3908;52.310;7.230;2022-08-21T09:39:46;5.50;;;2.30;;
7729;SDS011;3908;52.310;7.230;2022-08-21T09:42:33;6.28;;;1.92;;
7729;SDS011;3908;52.310;7.230;2022-08-21T09:45:20;10.57;;;2.88;;
7729;SDS011;3908;52.310;7.230;2022-08-21T09:48:13;3.90;;;1.90;;
7729;SDS011;3908;52.310;7.230;2022-08-21T09:51:05;8.25;;;2.63;;
7729;SDS011;3908;52.310;7.230;2022-08-21T09:53:56;4.05;;;1.85;;
7729;SDS011;3908;52.310;7.230;2022-08-21T09:56:53;8.43;;;2.20;;
7729;SDS011;3908;52.310;7.230;2022-08-21T10:00:10;4.63;;;2.03;;
7729;SDS011;3908;52.310;7.230;2022-08-21T10:03:08;6.30;;;1.90;;
7729;SDS011;3908;52.310;7.230;2022-08-21T10:05:59;5.53;;;2.10;;
7729;SDS011;3908;52.310;7.230;2022-08-21T10:08:50;4.97;;;2.17;;
7729;SDS011;3908;52.310;7.230;2022-08-21T10:11:38;4.18;;;1.88;;
7729;SDS011;3908;52.310;7.230;2022-08-21T10:14:33;3.72;;;1.65;;
7729;SDS011;3908;52.310;7.230;2022-08-21T10:17:32;5.10;;;1.98;;
7729;SDS011;3908;52.310;7.230;2022-08-21T10:20:34;3.25;;;1.58;;
7729;SDS011;3908;52.310;7.230;2022-08-21T10:23:37;5.20;;;1.80;;
7729;SDS011;3908;52.310;7.230;2022-08-21T10:26:35;5.50;;;2.00;;
7729;SDS011;3908;52.310;7.230;2022-08-21T10:29:36;10.43;;;2.40;;
7729;SDS011;3908;52.310;7.230;2022-08-21T10:32:37;5.90;;;1.90;;
7729;SDS011;3908;52.310;7.230;2022-08-21T10:35:40;4.13;;;1.90;;
7729;SDS011;3908;52.310;7.230;2022-08-21T10:38:42;6.53;;;2.80;;
7729;SDS011;3908;52.310;7.230;2022-08-21T10:41:43;7.05;;;2.60;;
7729;SDS011;3908;52.310;7.230;2022-08-21T10:44:49;4.38;;;2.03;;
7729;SDS011;3908;52.310;7.230;2022-08-21T10:47:49;8.50;;;2.60;;
7729;SDS011;3908;52.310;7.230;2022-08-21T10:50:42;5.15;;;2.13;;
7729;SDS011;3908;52.310;7.230;2022-08-21T10:53:45;7.63;;;2.72;;
7729;SDS011;3908;52.310;7.230;2022-08-21T10:56:41;6.18;;;2.17;;
7729;SDS011;3908;52.310;7.230;2022-08-21T10:59:33;4.80;;;2.40;;
7729;SDS011;3908;52.310;7.230;2022-08-21T11:02:30;7.00;;;2.20;;
7729;SDS011;3908;52.310;7.230;2022-08-21T11:05:23;4.53;;;2.20;;
7729;SDS011;3908;52.310;7.230;2022-08-21T11:08:23;6.45;;;2.00;;
7729;SDS011;3908;52.310;7.230;2022-08-21T11:11:18;3.80;;;1.90;;
7729;SDS011;3908;52.310;7.230;2022-08-21T11:14:11;2.83;;;1.67;;
7729;SDS011;3908;52.310;7.230;2022-08-21T11:17:07;5.72;;;2.28;;
7729;SDS011;3908;52.310;7.230;2022-08-21T11:19:59;7.88;;;1.77;;
7729;SDS011;3908;52.310;7.230;2022-08-21T11:22:52;4.65;;;1.88;;
7729;SDS011;3908;52.310;7.230;2022-08-21T11:25:45;6.20;;;2.53;;
7729;SDS011;3908;52.310;7.230;2022-08-21T11:28:40;8.50;;;2.60;;
7729;SDS011;3908;52.310;7.230;2022-08-21T11:31:36;3.05;;;1.83;;
7729;SDS011;3908;52.310;7.230;2022-08-21T11:34:38;5.10;;;1.90;;
7729;SDS011;3908;52.310;7.230;2022-08-21T11:37:40;2.85;;;1.40;;
7729;SDS011;3908;52.310;7.230;2022-08-21T11:40:40;5.18;;;1.95;;
7729;SDS011;3908;52.310;7.230;2022-08-21T11:43:36;6.38;;;1.83;;
7729;SDS011;3908;52.310;7.230;2022-08-21T11:46:31;6.57;;;2.05;;
7729;SDS011;3908;52.310;7.230;2022-08-21T11:49:31;3.22;;;1.75;;
7729;SDS011;3908;52.310;7.230;2022-08-21T11:52:30;4.97;;;2.03;;
7729;SDS011;3908;52.310;7.230;2022-08-21T11:55:22;3.72;;;1.70;;
7729;SDS011;3908;52.310;7.230;2022-08-21T11:58:16;3.83;;;1.70;;
7729;SDS011;3908;52.310;7.230;2022-08-21T12:01:09;3.05;;;1.77;;
7729;SDS011;3908;52.310;7.230;2022-08-21T12:04:03;1.90;;;1.50;;
7729;SDS011;3908;52.310;7.230;2022-08-21T12:06:55;5.50;;;1.90;;
7729;SDS011;3908;52.310;7.230;2022-08-21T12:09:53;4.43;;;1.77;;
7729;SDS011;3908;52.310;7.230;2022-08-21T12:12:42;6.15;;;1.77;;
7729;SDS011;3908;52.310;7.230;2022-08-21T12:15:31;6.90;;;1.60;;
7729;SDS011;3908;52.310;7.230;2022-08-21T12:18:24;4.60;;;1.80;;
7729;SDS011;3908;52.310;7.230;2022-08-21T12:21:19;2.63;;;1.52;;
7729;SDS011;3908;52.310;7.230;2022-08-21T12:24:15;6.75;;;2.05;;
7729;SDS011;3908;52.310;7.230;2022-08-21T12:27:13;4.95;;;1.70;;
7729;SDS011;3908;52.310;7.230;2022-08-21T12:30:18;3.28;;;1.33;;
7729;SDS011;3908;52.310;7.230;2022-08-21T12:33:18;7.35;;;1.50;;
7729;SDS011;3908;52.310;7.230;2022-08-21T12:36:12;8.68;;;1.60;;
7729;SDS011;3908;52.310;7.230;2022-08-21T12:39:03;6.07;;;1.45;;
7729;SDS011;3908;52.310;7.230;2022-08-21T12:41:58;2.92;;;1.52;;
7729;SDS011;3908;52.310;7.230;2022-08-21T12:44:49;3.30;;;1.42;;
7729;SDS011;3908;52.310;7.230;2022-08-21T12:47:43;4.93;;;1.50;;
7729;SDS011;3908;52.310;7.230;2022-08-21T12:50:35;4.47;;;1.65;;
7729;SDS011;3908;52.310;7.230;2022-08-21T12:53:29;3.72;;;1.70;;
7729;SDS011;3908;52.310;7.230;2022-08-21T12:56:22;4.97;;;2.00;;
7729;SDS011;3908;52.310;7.230;2022-08-21T12:59:11;4.75;;;1.65;;
7729;SDS011;3908;52.310;7.230;2022-08-21T13:01:59;11.00;;;1.60;;
7729;SDS011;3908;52.310;7.230;2022-08-21T13:04:49;3.67;;;1.30;;
7729;SDS011;3908;52.310;7.230;2022-08-21T13:07:38;4.45;;;1.35;;
7729;SDS011;3908;52.310;7.230;2022-08-21T13:10:33;5.75;;;1.50;;
7729;SDS011;3908;52.310;7.230;2022-08-21T13:13:24;4.68;;;1.70;;
7729;SDS011;3908;52.310;7.230;2022-08-21T13:16:12;4.55;;;1.52;;
7729;SDS011;3908;52.310;7.230;2022-08-21T13:19:07;4.90;;;1.92;;
7729;SDS011;3908;52.310;7.230;2022-08-21T13:21:58;6.30;;;1.63;;
7729;SDS011;3908;52.310;7.230;2022-08-21T13:24:47;3.20;;;1.95;;
7729;SDS011;3908;52.310;7.230;2022-08-21T13:27:35;4.82;;;1.95;;
7729;SDS011;3908;52.310;7.230;2022-08-21T13:30:23;4.15;;;1.73;;
7729;SDS011;3908;52.310;7.230;2022-08-21T13:33:13;3.60;;;1.55;;
7729;SDS011;3908;52.310;7.230;2022-08-21T13:36:03;4.28;;;1.40;;
7729;SDS011;3908;52.310;7.230;2022-08-21T13:38:55;3.50;;;1.40;;
7729;SDS011;3908;52.310;7.230;2022-08-21T13:41:43;4.20;;;1.50;;
7729;SDS011;3908;52.310;7.230;2022-08-21T13:44:34;4.22;;;1.50;;
7729;SDS011;3908;52.310;7.230;2022-08-21T13:47:24;5.00;;;1.50;;
7729;SDS011;3908;52.310;7.230;2022-08-21T13:50:12;2.15;;;1.42;;
7729;SDS011;3908;52.310;7.230;2022-08-21T13:53:04;5.43;;;1.48;;
7729;SDS011;3908;52.310;7.230;2022-08-21T13:55:53;4.72;;;1.30;;
7729;SDS011;3908;52.310;7.230;2022-08-21T13:58:41;5.90;;;1.55;;
7729;SDS011;3908;52.310;7.230;2022-08-21T14:01:32;4.63;;;1.60;;
7729;SDS011;3908;52.310;7.230;2022-08-21T14:04:23;6.38;;;1.65;;
7729;SDS011;3908;52.310;7.230;2022-08-21T14:07:16;5.20;;;1.60;;
7729;SDS011;3908;52.310;7.230;2022-08-21T14:10:06;5.80;;;1.50;;
7729;SDS011;3908;52.310;7.230;2022-08-21T14:12:58;7.30;;;1.45;;
7729;SDS011;3908;52.310;7.230;2022-08-21T14:15:53;3.67;;;1.52;;
7729;SDS011;3908;52.310;7.230;2022-08-21T14:18:45;3.40;;;1.70;;
7729;SDS011;3908;52.310;7.230;2022-08-21T14:21:36;4.18;;;1.85;;
7729;SDS011;3908;52.310;7.230;2022-08-21T14:24:25;4.97;;;1.65;;
7729;SDS011;3908;52.310;7.230;2022-08-21T14:27:15;6.68;;;1.75;;
7729;SDS011;3908;52.310;7.230;2022-08-21T14:30:09;4.82;;;1.60;;
7729;SDS011;3908;52.310;7.230;2022-08-21T14:33:07;6.15;;;1.55;;
7729;SDS011;3908;52.310;7.230;2022-08-21T14:35:58;4.78;;;1.65;;
7729;SDS011;3908;52.310;7.230;2022-08-21T14:38:47;4.68;;;1.40;;
7729;SDS011;3908;52.310;7.230;2022-08-21T14:41:34;4.65;;;1.50;;
7729;SDS011;3908;52.310;7.230;2022-08-21T14:44:22;5.28;;;1.58;;
7729;SDS011;3908;52.310;7.230;2022-08-21T14:47:09;5.40;;;1.50;;
7729;SDS011;3908;52.310;7.230;2022-08-21T14:49:57;4.18;;;1.88;;
7729;SDS011;3908;52.310;7.230;2022-08-21T14:52:46;6.55;;;1.63;;
7729;SDS011;3908;52.310;7.230;2022-08-21T14:55:33;4.28;;;1.48;;
7729;SDS011;3908;52.310;7.230;2022-08-21T14:58:42;3.15;;;1.65;;
7729;SDS011;3908;52.310;7.230;2022-08-21T15:01:30;7.38;;;1.70;;
7729;SDS011;3908;52.310;7.230;2022-08-21T15:04:20;5.60;;;1.40;;
7729;SDS011;3908;52.310;7.230;2022-08-21T15:07:07;3.33;;;1.27;;
7729;SDS011;3908;52.310;7.230;2022-08-21T15:09:56;3.60;;;1.50;;
7729;SDS011;3908;52.310;7.230;2022-08-21T15:12:43;5.18;;;1.73;;
7729;SDS011;3908;52.310;7.230;2022-08-21T15:15:31;5.18;;;1.90;;
7729;SDS011;3908;52.310;7.230;2022-08-21T15:18:26;8.52;;;1.98;;
7729;SDS011;3908;52.310;7.230;2022-08-21T15:21:14;3.88;;;1.52;;
7729;SDS011;3908;52.310;7.230;2022-08-21T15:24:01;5.25;;;1.65;;
7729;SDS011;3908;52.310;7.230;2022-08-21T15:26:50;5.68;;;1.42;;
7729;SDS011;3908;52.310;7.230;2022-08-21T15:29:39;3.55;;;1.42;;
7729;SDS011;3908;52.310;7.230;2022-08-21T15:32:28;7.30;;;1.70;;
7729;SDS011;3908;52.310;7.230;2022-08-21T15:35:16;4.45;;;1.27;;
7729;SDS011;3908;52.310;7.230;2022-08-21T15:38:03;3.50;;;1.63;;
7729;SDS011;3908;52.310;7.230;2022-08-21T15:40:50;7.47;;;1.73;;
7729;SDS011;3908;52.310;7.230;2022-08-21T15:43:41;10.05;;;1.90;;
7729;SDS011;3908;52.310;7.230;2022-08-21T15:46:33;4.40;;;1.42;;
7729;SDS011;3908;52.310;7.230;2022-08-21T15:49:21;5.63;;;1.33;;
7729;SDS011;3908;52.310;7.230;2022-08-21T15:52:09;6.18;;;1.70;;
7729;SDS011;3908;52.310;7.230;2022-08-21T15:54:56;5.53;;;2.08;;
7729;SDS011;3908;52.310;7.230;2022-08-21T15:57:44;3.55;;;1.50;;
7729;SDS011;3908;52.310;7.230;2022-08-21T16:00:35;4.22;;;1.30;;
7729;SDS011;3908;52.310;7.230;2022-08-21T16:03:22;3.58;;;1.67;;
7729;SDS011;3908;52.310;7.230;2022-08-21T16:06:11;6.78;;;1.75;;
7729;SDS011;3908;52.310;7.230;2022-08-21T16:08:58;5.03;;;1.70;;
7729;SDS011;3908;52.310;7.230;2022-08-21T16:11:46;5.88;;;1.40;;
7729;SDS011;3908;52.310;7.230;2022-08-21T16:14:34;6.05;;;1.60;;
7729;SDS011;3908;52.310;7.230;2022-08-21T16:17:24;3.65;;;1.65;;
7729;SDS011;3908;52.310;7.230;2022-08-21T16:20:15;5.57;;;1.55;;
7729;SDS011;3908;52.310;7.230;2022-08-21T16:23:04;5.85;;;1.58;;
7729;SDS011;3908;52.310;7.230;2022-08-21T16:25:51;7.07;;;1.70;;
7729;SDS011;3908;52.310;7.230;2022-08-21T16:28:39;6.32;;;1.63;;
7729;SDS011;3908;52.310;7.230;2022-08-21T16:31:30;7.80;;;1.70;;
7729;SDS011;3908;52.310;7.230;2022-08-21T16:34:20;2.60;;;1.35;;
7729;SDS011;3908;52.310;7.230;2022-08-21T16:37:07;4.05;;;1.70;;
7729;SDS011;3908;52.310;7.230;2022-08-21T16:39:54;5.70;;;1.70;;
7729;SDS011;3908;52.310;7.230;2022-08-21T16:42:41;5.82;;;1.80;;
7729;SDS011;3908;52.310;7.230;2022-08-21T16:45:31;2.35;;;1.30;;
7729;SDS011;3908;52.310;7.230;2022-08-21T16:48:18;1.88;;;1.52;;
7729;SDS011;3908;52.310;7.230;2022-08-21T16:51:07;2.60;;;1.40;;
7729;SDS011;3908;52.310;7.230;2022-08-21T16:53:55;3.53;;;1.90;;
7729;SDS011;3908;52.310;7.230;2022-08-21T16:56:41;5.53;;;1.60;;
7729;SDS011;3908;52.310;7.230;2022-08-21T16:59:31;2.13;;;1.50;;
7729;SDS011;3908;52.310;7.230;2022-08-21T17:02:22;4.57;;;1.70;;
7729;SDS011;3908;52.310;7.230;2022-08-21T17:05:14;4.55;;;1.67;;
7729;SDS011;3908;52.310;7.230;2022-08-21T17:08:03;4.57;;;1.70;;
7729;SDS011;3908;52.310;7.230;2022-08-21T17:10:50;8.98;;;1.90;;
7729;SDS011;3908;52.310;7.230;2022-08-21T17:13:37;4.63;;;1.65;;
7729;SDS011;3908;52.310;7.230;2022-08-21T17:16:25;3.40;;;1.60;;
7729;SDS011;3908;52.310;7.230;2022-08-21T17:19:14;4.32;;;1.35;;
7729;SDS011;3908;52.310;7.230;2022-08-21T17:22:02;4.50;;;1.80;;
7729;SDS011;3908;52.310;7.230;2022-08-21T17:24:51;4.35;;;1.88;;
7729;SDS011;3908;52.310;7.230;2022-08-21T17:27:38;4.50;;;1.75;;
7729;SDS011;3908;52.310;7.230;2022-08-21T17:30:28;3.42;;;1.70;;
7729;SDS011;3908;52.310;7.230;2022-08-21T17:33:16;6.00;;;2.08;;